Terminal Aerodrome Forecast
Issued by NWS

Home | Current Version | Previous Version | Text Only | Print | Product List | Glossary On
Versions: 1 2 3 4 5 6 7 8 9 10 11 12 13 14
267
FTUS43 KEAX 111127
TAFSTJ
TAF
KSTJ 111127Z 1112/1212 05008KT P6SM SCT015 BKN040
      TEMPO 1112/1115 BKN015
     FM111500 09007KT P6SM SCT040
     FM120100 14005KT P6SM SKC=

USA.gov is the U.S. government's official web portal to all federal, state and local government web resources and services.